Time;durP1;ratioP1;P1;durP2;ratioP2;P2;SDS_P1;SDS_P2;PMS_P1;PMS_P2;Temp;Humidity;BMP_temperature;BMP_pressure;BME280_temperature;BME280_humidity;BME280_pressure;Samples;Min_cycle;Max_cycle;Signal;HPM_P1;HPM_P2
2021/08/01 00:00:23;;;;;;;9.00;5.30;;;27.70;96.70;;;;;;4906373;29;20047;-70
2021/08/01 00:02:54;;;;;;;8.63;5.15;;;27.70;96.70;;;;;;4925808;29;20639;-70
2021/08/01 00:05:27;;;;;;;10.32;4.82;;;27.70;96.70;;;;;;4911067;29;20040;-70
2021/08/01 00:07:56;;;;;;;12.10;5.22;;;27.70;96.70;;;;;;4909806;29;20048;-70
2021/08/01 00:10:25;;;;;;;8.57;5.22;;;27.70;96.70;;;;;;4906563;29;20044;-70
2021/08/01 00:12:54;;;;;;;11.20;4.80;;;27.70;96.70;;;;;;4909544;29;20072;-70
2021/08/01 00:15:23;;;;;;;13.90;5.38;;;27.70;96.70;;;;;;4905286;29;20092;-69
2021/08/01 00:17:52;;;;;;;10.90;5.07;;;27.70;96.70;;;;;;4911543;29;20040;-69
2021/08/01 00:20:21;;;;;;;12.00;5.68;;;27.70;96.70;;;;;;4922231;28;20051;-70
2021/08/01 00:22:53;;;;;;;9.55;5.05;;;27.70;96.70;;;;;;4910664;29;20577;-69
2021/08/01 00:25:23;;;;;;;12.35;5.28;;;27.70;96.70;;;;;;4908022;29;20119;-70
2021/08/01 00:27:53;;;;;;;10.15;5.07;;;27.60;96.70;;;;;;4909850;29;20047;-70
2021/08/01 00:33:52;;;;;;;10.35;5.50;;;27.80;96.70;;;;;;4907576;29;20047;-71
2021/08/01 00:36:23;;;;;;;13.38;5.47;;;27.70;96.70;;;;;;4909772;29;20092;-71
2021/08/01 00:38:54;;;;;;;14.60;6.03;;;27.50;96.70;;;;;;4920529;29;20053;-70
2021/08/01 00:41:24;;;;;;;9.68;6.03;;;27.50;96.70;;;;;;4923339;29;20053;-71
2021/08/01 00:43:54;;;;;;;12.45;5.60;;;27.40;96.70;;;;;;4906774;29;20048;-71
2021/08/01 00:46:24;;;;;;;12.70;5.55;;;27.40;96.70;;;;;;4923807;29;20044;-70
2021/08/01 00:48:54;;;;;;;11.18;5.90;;;27.40;96.70;;;;;;4922376;28;20087;-70
2021/08/01 00:51:24;;;;;;;11.15;5.45;;;27.40;96.70;;;;;;4937953;28;20051;-71
2021/08/01 00:53:57;;;;;;;8.52;5.53;;;27.30;96.70;;;;;;4904040;29;20052;-71
2021/08/01 00:56:27;;;;;;;8.95;5.90;;;27.30;96.70;;;;;;4919871;28;20049;-70
2021/08/01 00:58:57;;;;;;;12.52;6.05;;;27.30;96.70;;;;;;4900598;29;20152;-70
2021/08/01 01:01:32;;;;;;;12.18;6.35;;;27.30;96.70;;;;;;4908221;29;20074;-70
2021/08/01 01:04:12;;;;;;;9.65;5.85;;;27.20;96.70;;;;;;4904831;29;20522;-70
2021/08/01 01:06:52;;;;;;;10.45;5.43;;;27.20;96.70;;;;;;4922870;28;20056;-70
2021/08/01 01:09:31;;;;;;;9.43;5.90;;;27.20;96.70;;;;;;4905490;29;20602;-70
2021/08/01 01:12:22;;;;;;;9.98;6.22;;;27.20;96.70;;;;;;4908069;29;20047;-70
2021/08/01 01:14:57;;;;;;;9.82;5.72;;;27.30;96.70;;;;;;4909374;29;20046;-70
2021/08/01 01:17:30;;;;;;;12.40;6.30;;;27.20;96.70;;;;;;4907321;29;20143;-71
2021/08/01 01:20:35;;;;;;;10.82;6.18;;;27.20;96.70;;;;;;4905637;29;20108;-70
2021/08/01 01:43:34;;;;;;;8.30;6.10;;;27.00;96.70;;;;;;4924595;29;20055;-70
2021/08/01 01:46:04;;;;;;;9.45;6.07;;;27.00;96.70;;;;;;4892757;29;20047;-70
2021/08/01 01:48:35;;;;;;;10.35;5.85;;;27.00;96.70;;;;;;4901822;29;20439;-71
2021/08/01 01:51:06;;;;;;;9.63;6.10;;;27.00;96.70;;;;;;4898327;29;20048;-70
2021/08/01 01:53:36;;;;;;;11.60;5.82;;;26.90;96.70;;;;;;4888786;29;20193;-71
2021/08/01 01:56:09;;;;;;;12.73;6.75;;;26.90;96.70;;;;;;4887337;29;20052;-70
2021/08/01 01:58:40;;;;;;;12.63;7.68;;;26.90;96.70;;;;;;4905718;29;20314;-70
2021/08/01 02:01:10;;;;;;;12.43;7.72;;;27.00;96.70;;;;;;4904784;29;20050;-70
2021/08/01 02:03:39;;;;;;;13.35;7.43;;;27.00;96.70;;;;;;4912515;29;20056;-70
2021/08/01 02:06:08;;;;;;;16.48;7.25;;;26.90;96.70;;;;;;4883139;29;20167;-70
2021/08/01 02:08:54;;;;;;;19.25;8.57;;;27.00;96.70;;;;;;4870635;29;20486;-70
2021/08/01 02:32:04;;;;;;;14.45;9.35;;;26.70;96.70;;;;;;4867937;29;20116;-71
2021/08/01 02:42:03;;;;;;;14.63;9.88;;;26.50;96.70;;;;;;4883607;29;20033;-70
2021/08/01 02:44:35;;;;;;;14.13;10.63;;;26.50;96.70;;;;;;4853221;29;20419;-70
2021/08/01 02:47:09;;;;;;;13.88;10.13;;;26.50;96.70;;;;;;4870318;29;20699;-70
2021/08/01 02:49:41;;;;;;;13.88;9.55;;;26.50;96.70;;;;;;4886711;29;20045;-70
2021/08/01 02:52:14;;;;;;;15.15;9.65;;;26.50;96.70;;;;;;4889105;29;20136;-71
2021/08/01 02:54:49;;;;;;;12.93;9.20;;;26.50;96.70;;;;;;4886303;29;20059;-70
2021/08/01 02:57:23;;;;;;;16.25;8.23;;;26.50;96.70;;;;;;4918761;29;20068;-70
2021/08/01 02:59:53;;;;;;;14.27;8.93;;;26.30;96.70;;;;;;4887004;29;20078;-70
2021/08/01 03:02:24;;;;;;;16.52;8.98;;;26.30;96.70;;;;;;4888393;29;20052;-70
2021/08/01 03:04:59;;;;;;;13.45;9.13;;;26.20;96.70;;;;;;4887451;29;20037;-70
2021/08/01 03:07:30;;;;;;;12.27;8.32;;;26.10;96.70;;;;;;4889459;29;20047;-70
2021/08/01 03:10:00;;;;;;;10.65;7.93;;;26.10;96.70;;;;;;4867867;29;20084;-70
2021/08/01 03:13:23;;;;;;;10.23;8.27;;;26.10;96.70;;;;;;4902344;29;20072;-70
2021/08/01 03:28:11;;;;;;;15.93;8.10;;;25.80;96.70;;;;;;4879601;29;20118;-70
2021/08/01 03:39:19;;;;;;;10.80;7.65;;;25.70;96.70;;;;;;4937142;28;20540;-70
2021/08/01 03:43:03;;;;;;;16.25;7.97;;;25.70;96.70;;;;;;4941976;28;20072;-70
2021/08/01 03:53:40;;;;;;;15.77;8.65;;;25.90;96.70;;;;;;4952752;28;20046;-70
2021/08/01 03:56:09;;;;;;;12.30;7.30;;;25.90;96.70;;;;;;4950242;28;20046;-70
2021/08/01 03:58:38;;;;;;;10.38;7.10;;;25.90;96.70;;;;;;4957626;28;20434;-70
2021/08/01 04:01:07;;;;;;;8.48;7.10;;;26.00;96.70;;;;;;4955428;28;20509;-70
2021/08/01 04:03:36;;;;;;;18.10;7.97;;;25.90;96.70;;;;;;4944620;28;20146;-70
2021/08/01 04:06:05;;;;;;;10.25;7.70;;;25.80;96.70;;;;;;4940268;28;20528;-70
2021/08/01 04:08:34;;;;;;;11.07;7.40;;;25.80;96.70;;;;;;4958678;28;20043;-70
2021/08/01 04:11:06;;;;;;;13.90;8.30;;;25.80;96.70;;;;;;4903159;29;20068;-70
2021/08/01 04:13:35;;;;;;;11.27;7.88;;;25.90;96.70;;;;;;4910529;29;20090;-70
2021/08/01 04:16:07;;;;;;;14.95;8.23;;;25.90;96.70;;;;;;4906342;29;20040;-70
2021/08/01 04:18:36;;;;;;;10.27;8.35;;;25.90;96.70;;;;;;4910148;29;20060;-71
2021/08/01 04:21:09;;;;;;;10.55;7.80;;;25.80;96.70;;;;;;4906667;29;20048;-70
2021/08/01 04:24:21;;;;;;;11.18;8.48;;;25.90;96.70;;;;;;4910228;29;20897;-70
2021/08/01 04:42:09;;;;;;;12.38;8.25;;;25.60;96.70;;;;;;4906567;29;20043;-70
2021/08/01 04:44:39;;;;;;;12.00;8.40;;;25.60;96.70;;;;;;4908833;29;20055;-71
2021/08/01 04:47:08;;;;;;;11.13;8.10;;;25.60;96.70;;;;;;4929338;28;20047;-70
2021/08/01 04:49:37;;;;;;;10.85;7.38;;;25.50;96.70;;;;;;4927622;28;20167;-70
2021/08/01 04:52:07;;;;;;;8.68;7.22;;;25.50;96.70;;;;;;4947540;28;20788;-70
2021/08/01 04:54:39;;;;;;;8.07;7.18;;;25.50;96.70;;;;;;4910165;29;20115;-70
2021/08/01 04:57:10;;;;;;;10.10;8.15;;;25.50;96.70;;;;;;4911151;29;20366;-70
2021/08/01 04:59:39;;;;;;;10.60;7.28;;;25.60;96.70;;;;;;4933881;28;20059;-70
2021/08/01 05:02:08;;;;;;;10.00;7.80;;;25.70;96.70;;;;;;4908534;29;20051;-70
2021/08/01 05:04:38;;;;;;;7.97;7.15;;;25.80;96.70;;;;;;4908136;29;20136;-70
2021/08/01 05:07:07;;;;;;;10.35;7.18;;;25.80;96.70;;;;;;4903745;29;20353;-70
2021/08/01 05:09:36;;;;;;;7.40;6.70;;;25.90;96.70;;;;;;4909312;29;20495;-70
2021/08/01 05:12:05;;;;;;;9.88;6.80;;;25.90;96.70;;;;;;4908440;29;20047;-71
2021/08/01 05:14:35;;;;;;;8.02;6.15;;;26.00;96.70;;;;;;4897671;29;20052;-70
2021/08/01 05:17:04;;;;;;;9.48;6.55;;;26.00;96.70;;;;;;4922469;28;20059;-70
2021/08/01 05:19:37;;;;;;;8.15;5.78;;;26.00;96.70;;;;;;4908377;29;20147;-70
2021/08/01 05:22:05;;;;;;;7.40;5.43;;;26.00;96.70;;;;;;4908266;29;20070;-70
2021/08/01 05:24:36;;;;;;;10.45;5.65;;;26.00;96.70;;;;;;4909147;29;20048;-70
2021/08/01 05:27:05;;;;;;;8.25;5.50;;;26.00;96.70;;;;;;4908582;29;20044;-70
2021/08/01 05:29:35;;;;;;;10.30;5.30;;;26.10;96.70;;;;;;4907900;29;20064;-70
2021/08/01 05:32:04;;;;;;;8.15;5.72;;;26.10;96.70;;;;;;4909832;29;20130;-70
2021/08/01 05:34:33;;;;;;;5.82;5.13;;;26.20;96.70;;;;;;4910111;29;20048;-70
2021/08/01 05:37:01;;;;;;;7.63;4.88;;;26.20;96.70;;;;;;4908089;29;20036;-70
2021/08/01 05:39:32;;;;;;;8.60;5.28;;;26.20;96.70;;;;;;4908371;29;20079;-70
2021/08/01 05:42:00;;;;;;;4.88;4.38;;;26.30;96.70;;;;;;4908611;29;20047;-69
2021/08/01 05:44:29;;;;;;;9.68;5.30;;;26.40;96.70;;;;;;4908784;29;20119;-71
2021/08/01 05:46:58;;;;;;;6.72;5.10;;;26.40;96.70;;;;;;4908114;29;20511;-70
2021/08/01 05:49:27;;;;;;;5.57;4.35;;;26.50;96.70;;;;;;4906748;29;20060;-70
2021/08/01 05:51:55;;;;;;;7.28;4.68;;;26.50;96.70;;;;;;4906687;29;20052;-70
2021/08/01 05:54:23;;;;;;;7.88;4.20;;;26.50;96.70;;;;;;4909732;29;20040;-71
2021/08/01 05:56:51;;;;;;;6.95;4.90;;;26.50;96.70;;;;;;4907965;29;20518;-70
2021/08/01 05:59:20;;;;;;;6.60;4.57;;;26.50;96.70;;;;;;4907586;29;20056;-70
2021/08/01 06:01:48;;;;;;;9.60;5.05;;;26.60;96.70;;;;;;4907343;29;20055;-70
2021/08/01 06:04:18;;;;;;;6.03;4.68;;;26.60;96.70;;;;;;4909399;29;20781;-70
2021/08/01 06:06:46;;;;;;;7.57;5.22;;;26.60;96.70;;;;;;4927205;28;20048;-70
2021/08/01 06:09:14;;;;;;;10.30;5.97;;;26.60;96.70;;;;;;4914063;29;20083;-69
2021/08/01 06:11:42;;;;;;;7.40;5.53;;;26.70;96.70;;;;;;4913400;29;20450;-69
2021/08/01 06:14:10;;;;;;;12.70;5.82;;;26.80;96.70;;;;;;4921184;29;20451;-70
2021/08/01 06:16:39;;;;;;;9.05;5.45;;;26.80;96.70;;;;;;4911769;29;20055;-70
2021/08/01 06:19:07;;;;;;;11.18;5.50;;;26.70;96.70;;;;;;4908997;29;20059;-71
2021/08/01 06:21:37;;;;;;;7.75;5.45;;;26.70;96.70;;;;;;4911837;29;20040;-70
2021/08/01 06:24:05;;;;;;;7.72;5.20;;;26.70;96.70;;;;;;4907545;29;20070;-71
2021/08/01 06:26:34;;;;;;;9.93;5.40;;;26.80;96.70;;;;;;4915700;29;20095;-70
2021/08/01 06:29:02;;;;;;;9.57;5.15;;;27.00;96.70;;;;;;4907905;29;20517;-70
2021/08/01 06:31:31;;;;;;;12.98;5.35;;;27.10;96.70;;;;;;4908047;29;20151;-70
2021/08/01 06:34:00;;;;;;;11.60;5.28;;;27.20;96.70;;;;;;4907123;29;20269;-70
2021/08/01 06:36:28;;;;;;;13.45;5.50;;;27.30;96.70;;;;;;4913471;28;20044;-71
2021/08/01 06:38:57;;;;;;;11.23;5.75;;;27.20;96.70;;;;;;4926492;28;20075;-71
2021/08/01 06:41:26;;;;;;;10.07;4.70;;;27.20;96.70;;;;;;4937147;28;20044;-70
2021/08/01 06:43:54;;;;;;;11.23;5.38;;;27.10;96.70;;;;;;4924871;29;20072;-70
2021/08/01 06:46:22;;;;;;;11.18;4.93;;;27.30;96.70;;;;;;4910281;29;20387;-70
2021/08/01 06:48:50;;;;;;;11.05;4.72;;;27.30;96.70;;;;;;4924596;28;20051;-71
2021/08/01 06:51:19;;;;;;;11.65;4.38;;;27.20;96.70;;;;;;4920685;29;20048;-70
2021/08/01 06:53:47;;;;;;;13.32;4.82;;;27.10;96.70;;;;;;4908715;29;20051;-70
2021/08/01 06:56:16;;;;;;;13.50;4.43;;;27.00;96.70;;;;;;4909689;29;20056;-70
2021/08/01 06:58:45;;;;;;;11.23;4.38;;;26.90;96.70;;;;;;4910136;29;20091;-70
2021/08/01 07:01:13;;;;;;;9.35;4.72;;;26.90;96.70;;;;;;4914733;28;20051;-70
2021/08/01 07:03:42;;;;;;;9.23;4.32;;;26.90;96.70;;;;;;4908256;29;20052;-70
2021/08/01 07:06:10;;;;;;;10.02;4.22;;;26.90;96.70;;;;;;4906690;29;20079;-70
2021/08/01 07:08:38;;;;;;;11.60;4.32;;;27.00;96.70;;;;;;4910411;29;20193;-70
2021/08/01 07:11:07;;;;;;;8.80;4.28;;;27.10;96.70;;;;;;4912077;28;20729;-71
2021/08/01 07:13:37;;;;;;;9.25;4.90;;;27.10;96.70;;;;;;4910945;29;20048;-71
2021/08/01 07:16:06;;;;;;;10.00;4.18;;;27.20;96.70;;;;;;4916177;29;20044;-70
2021/08/01 07:18:34;;;;;;;8.35;4.32;;;27.20;96.70;;;;;;4912126;29;20052;-70
2021/08/01 07:21:03;;;;;;;10.23;4.63;;;27.30;96.70;;;;;;4911588;29;20969;-71
2021/08/01 07:23:31;;;;;;;8.27;4.05;;;27.40;96.70;;;;;;4913123;29;20116;-70
2021/08/01 07:25:59;;;;;;;12.48;4.28;;;27.40;96.70;;;;;;4913772;29;20068;-70
2021/08/01 07:28:27;;;;;;;9.40;3.92;;;27.40;96.70;;;;;;4912624;29;20107;-71
2021/08/01 07:30:57;;;;;;;10.32;3.97;;;27.30;96.70;;;;;;4908183;29;20135;-71
2021/08/01 07:33:25;;;;;;;7.43;3.63;;;27.30;96.70;;;;;;4913733;29;20054;-71
2021/08/01 07:35:54;;;;;;;10.98;4.18;;;27.30;96.70;;;;;;4907412;29;20045;-71
2021/08/01 07:38:24;;;;;;;9.45;4.00;;;27.20;96.70;;;;;;4908558;29;20431;-69
2021/08/01 07:40:52;;;;;;;10.07;3.83;;;27.20;96.70;;;;;;4891694;29;20458;-70
2021/08/01 07:43:21;;;;;;;11.60;4.30;;;27.10;96.70;;;;;;4924797;28;20673;-71
2021/08/01 07:45:49;;;;;;;7.28;3.92;;;27.10;96.70;;;;;;4911532;28;20055;-70
2021/08/01 07:48:19;;;;;;;10.02;3.40;;;27.00;96.70;;;;;;4919829;29;20051;-72
2021/08/01 07:50:48;;;;;;;10.32;3.58;;;27.10;96.70;;;;;;4894579;29;20075;-71
2021/08/01 07:53:16;;;;;;;9.65;3.20;;;27.10;96.70;;;;;;4916300;29;20498;-71
2021/08/01 07:55:45;;;;;;;9.05;3.58;;;27.00;96.70;;;;;;4910102;29;20119;-71
2021/08/01 07:58:13;;;;;;;10.00;3.88;;;26.90;96.70;;;;;;4917126;28;20458;-72
2021/08/01 08:00:41;;;;;;;11.18;3.72;;;26.90;96.70;;;;;;4942608;28;20596;-72
2021/08/01 08:03:10;;;;;;;14.80;3.33;;;27.10;96.70;;;;;;4911812;29;20055;-71
2021/08/01 08:05:40;;;;;;;13.27;3.75;;;27.30;96.70;;;;;;4911699;29;20328;-71
2021/08/01 08:08:08;;;;;;;10.85;3.47;;;27.50;96.70;;;;;;4912091;29;20048;-72
2021/08/01 08:10:37;;;;;;;9.85;3.20;;;27.50;96.70;;;;;;4909630;29;20059;-71
2021/08/01 08:13:05;;;;;;;11.65;3.72;;;27.40;96.70;;;;;;4910123;29;20932;-71
2021/08/01 08:15:34;;;;;;;9.07;3.13;;;27.40;96.70;;;;;;4910915;29;20574;-71
2021/08/01 08:18:03;;;;;;;7.93;3.50;;;27.40;96.70;;;;;;4893843;29;20112;-71
2021/08/01 08:20:32;;;;;;;12.07;3.33;;;27.50;96.70;;;;;;4912251;29;20468;-70
2021/08/01 08:23:02;;;;;;;9.48;3.05;;;27.50;96.70;;;;;;4918994;29;20123;-70
2021/08/01 08:25:31;;;;;;;7.47;3.10;;;27.50;96.70;;;;;;4927132;28;20055;-71
2021/08/01 08:27:59;;;;;;;9.20;2.90;;;27.70;96.70;;;;;;4910127;29;20032;-71
2021/08/01 08:30:28;;;;;;;7.82;2.70;;;27.90;96.70;;;;;;4926006;29;20052;-71
2021/08/01 08:32:57;;;;;;;8.70;2.38;;;28.00;96.70;;;;;;4914197;29;20036;-71
2021/08/01 08:35:26;;;;;;;5.80;2.20;;;28.20;96.70;;;;;;4922089;28;20056;-71
2021/08/01 08:37:54;;;;;;;4.60;2.22;;;28.20;96.70;;;;;;4910794;29;20040;-71
2021/08/01 08:40:24;;;;;;;8.40;2.30;;;28.10;96.30;;;;;;4928270;29;20043;-71
2021/08/01 08:42:54;;;;;;;8.10;2.28;;;28.10;95.10;;;;;;4925217;29;20052;-72
2021/08/01 08:45:24;;;;;;;6.35;2.20;;;28.30;94.30;;;;;;4914431;29;20048;-71
2021/08/01 08:47:54;;;;;;;5.25;1.83;;;28.50;93.80;;;;;;4909522;29;20076;-71
2021/08/01 08:50:23;;;;;;;9.50;2.40;;;28.50;93.20;;;;;;4912444;29;20503;-71
2021/08/01 08:52:58;;;;;;;6.80;2.33;;;28.60;94.20;;;;;;4920752;28;20096;-71
2021/08/01 08:55:32;;;;;;;8.05;2.10;;;28.60;94.10;;;;;;4921906;29;20051;-70
2021/08/01 08:58:03;;;;;;;3.20;1.80;;;28.50;94.60;;;;;;4936814;29;20648;-71
2021/08/01 09:00:33;;;;;;;7.05;2.42;;;28.40;95.30;;;;;;4909526;29;20059;-72
2021/08/01 09:03:01;;;;;;;6.78;2.30;;;28.20;96.10;;;;;;4908168;29;20044;-71
2021/08/01 09:05:31;;;;;;;7.22;2.20;;;28.10;96.00;;;;;;4922740;29;20052;-71
2021/08/01 09:08:01;;;;;;;9.35;2.65;;;28.20;96.40;;;;;;4912394;29;20063;-71
2021/08/01 09:10:32;;;;;;;5.68;2.15;;;28.50;96.70;;;;;;4912768;29;20055;-71
2021/08/01 09:13:01;;;;;;;9.02;2.75;;;28.80;96.30;;;;;;4907212;29;20036;-71
2021/08/01 09:15:29;;;;;;;6.55;2.58;;;28.80;95.10;;;;;;4914905;29;20078;-71
2021/08/01 09:18:00;;;;;;;5.53;2.10;;;28.80;94.90;;;;;;4912054;29;20395;-70
2021/08/01 09:20:30;;;;;;;7.70;2.20;;;29.00;95.00;;;;;;4909163;29;20055;-71
2021/08/01 09:23:07;;;;;;;5.57;1.95;;;28.90;94.30;;;;;;4909185;29;20048;-71
2021/08/01 09:25:39;;;;;;;4.18;1.80;;;29.00;94.30;;;;;;4907902;29;20095;-71
2021/08/01 09:28:13;;;;;;;6.03;2.08;;;29.00;92.90;;;;;;4915741;29;20340;-71
2021/08/01 09:30:49;;;;;;;6.72;2.30;;;29.00;92.60;;;;;;4912334;29;20150;-71
2021/08/01 09:33:32;;;;;;;6.88;2.20;;;29.10;92.10;;;;;;4927943;29;20048;-72
2021/08/01 09:36:06;;;;;;;6.78;2.40;;;29.20;92.50;;;;;;4924174;28;20104;-72
2021/08/01 09:38:46;;;;;;;6.25;2.30;;;29.20;92.20;;;;;;4938174;28;20127;-71
2021/08/01 09:41:17;;;;;;;5.40;2.25;;;29.20;92.30;;;;;;4891271;29;20052;-72
2021/08/01 09:43:48;;;;;;;11.75;2.85;;;29.20;93.00;;;;;;4941357;28;20958;-72
2021/08/01 09:46:17;;;;;;;4.93;2.20;;;29.30;92.70;;;;;;4907257;29;20485;-72
2021/08/01 09:48:46;;;;;;;6.05;2.30;;;29.50;93.10;;;;;;4939381;28;20312;-72
2021/08/01 09:51:16;;;;;;;5.53;2.15;;;29.70;92.70;;;;;;4909291;29;20071;-72
2021/08/01 09:53:44;;;;;;;5.75;2.70;;;29.60;92.60;;;;;;4907873;29;20443;-72
2021/08/01 09:56:15;;;;;;;7.78;2.33;;;29.70;93.00;;;;;;4908401;29;20446;-72
2021/08/01 09:58:44;;;;;;;4.82;2.22;;;29.70;93.00;;;;;;4927828;28;20052;-72
2021/08/01 10:01:13;;;;;;;8.00;2.65;;;29.70;93.60;;;;;;4905151;29;20074;-72
2021/08/01 10:03:43;;;;;;;12.95;2.72;;;29.50;93.40;;;;;;4913962;29;20052;-72
2021/08/01 10:06:13;;;;;;;7.05;2.63;;;29.30;93.60;;;;;;4922987;28;20040;-72
2021/08/01 10:08:42;;;;;;;7.22;2.15;;;29.40;93.80;;;;;;4910291;29;20143;-72
2021/08/01 10:11:15;;;;;;;6.93;2.40;;;29.30;92.60;;;;;;4925475;28;20127;-71
2021/08/01 10:13:45;;;;;;;4.78;2.00;;;29.40;91.30;;;;;;4911722;29;20589;-72
2021/08/01 10:16:14;;;;;;;6.22;1.90;;;29.50;90.30;;;;;;4911257;29;20039;-72
2021/08/01 10:18:44;;;;;;;5.35;2.08;;;29.60;89.90;;;;;;4909649;29;20243;-72
2021/08/01 10:21:14;;;;;;;6.07;1.73;;;29.50;89.10;;;;;;4910842;29;20072;-73
2021/08/01 10:23:44;;;;;;;4.65;1.77;;;29.50;88.50;;;;;;4907094;29;20134;-73
2021/08/01 10:26:17;;;;;;;5.85;2.15;;;29.60;89.20;;;;;;4927964;28;20044;-72
2021/08/01 10:28:50;;;;;;;7.93;2.40;;;29.70;86.60;;;;;;4920839;29;20414;-72
2021/08/01 10:31:29;;;;;;;6.40;1.95;;;29.70;86.90;;;;;;4926070;29;20044;-72
2021/08/01 10:34:07;;;;;;;5.68;2.10;;;29.70;85.70;;;;;;4907920;29;20044;-71
2021/08/01 10:36:38;;;;;;;4.18;1.65;;;29.70;86.20;;;;;;4917021;29;20139;-71
2021/08/01 10:39:12;;;;;;;3.63;1.73;;;29.70;87.20;;;;;;4916883;29;20044;-73
2021/08/01 10:41:43;;;;;;;4.55;1.92;;;29.80;86.20;;;;;;4924218;29;20400;-73
2021/08/01 10:44:12;;;;;;;7.25;2.00;;;29.80;86.40;;;;;;4904948;29;20542;-73
2021/08/01 10:46:42;;;;;;;4.50;2.15;;;29.80;86.30;;;;;;4915594;29;20044;-71
2021/08/01 10:49:11;;;;;;;4.47;2.05;;;30.00;86.50;;;;;;4905443;29;20098;-70
2021/08/01 10:51:41;;;;;;;2.03;1.40;;;30.00;86.00;;;;;;4909882;29;20056;-71
2021/08/01 10:54:31;;;;;;;5.07;1.88;;;30.10;86.10;;;;;;4907163;29;20055;-72
2021/08/01 10:57:18;;;;;;;4.60;2.10;;;30.20;85.40;;;;;;4907773;29;20048;-71
2021/08/01 11:00:17;;;;;;;3.38;1.75;;;30.20;85.30;;;;;;4907341;29;20071;-71
2021/08/01 11:03:16;;;;;;;3.88;1.67;;;30.30;84.40;;;;;;4920366;29;20078;-71
2021/08/01 11:05:45;;;;;;;3.47;1.75;;;30.40;83.10;;;;;;4907919;29;20059;-71
2021/08/01 11:08:14;;;;;;;4.00;1.85;;;30.40;83.50;;;;;;4907075;29;20139;-71
2021/08/01 11:10:44;;;;;;;4.53;1.80;;;30.40;83.90;;;;;;4907412;29;20143;-71
2021/08/01 11:13:38;;;;;;;6.10;2.10;;;30.20;84.90;;;;;;4906699;29;20494;-71
2021/08/01 11:16:08;;;;;;;6.72;3.17;;;30.20;86.70;;;;;;4906262;29;20099;-71
2021/08/01 11:18:39;;;;;;;7.38;1.90;;;30.40;86.40;;;;;;4910702;29;20040;-71
2021/08/01 11:21:09;;;;;;;5.93;2.03;;;30.50;85.20;;;;;;4913761;29;20055;-72
2021/08/01 11:24:10;;;;;;;3.17;1.70;;;30.40;87.10;;;;;;4909250;29;20048;-71
2021/08/01 11:27:07;;;;;;;4.15;1.67;;;30.60;85.50;;;;;;4904974;29;20048;-72
2021/08/01 11:30:01;;;;;;;6.07;1.83;;;30.60;84.80;;;;;;4908908;29;20245;-71
2021/08/01 11:32:51;;;;;;;4.88;1.75;;;30.50;84.80;;;;;;4906249;29;20039;-71
2021/08/01 11:35:21;;;;;;;4.65;1.63;;;30.60;85.30;;;;;;4905450;29;20052;-71
2021/08/01 11:38:08;;;;;;;2.58;1.40;;;30.60;84.90;;;;;;4907764;28;20438;-71
2021/08/01 11:40:47;;;;;;;5.05;1.60;;;30.80;82.30;;;;;;4905085;29;20126;-72
2021/08/01 11:43:16;;;;;;;4.28;1.60;;;30.80;82.40;;;;;;4905505;29;20524;-73
2021/08/01 11:46:02;;;;;;;4.50;1.30;;;30.70;82.10;;;;;;4927957;29;20048;-72
2021/08/01 11:48:31;;;;;;;4.18;1.60;;;30.70;83.30;;;;;;4911408;29;20051;-71
2021/08/01 11:51:04;;;;;;;3.00;1.42;;;30.70;82.40;;;;;;4904282;29;20155;-71
2021/08/01 11:53:33;;;;;;;9.77;1.83;;;30.70;81.90;;;;;;4908251;29;20443;-72
2021/08/01 11:56:01;;;;;;;5.10;1.55;;;30.60;82.60;;;;;;4919775;29;20558;-72
2021/08/01 11:58:31;;;;;;;5.35;1.70;;;30.60;83.00;;;;;;4906618;29;20040;-72
2021/08/01 12:01:01;;;;;;;6.57;1.98;;;30.60;83.30;;;;;;4909265;29;20047;-73
2021/08/01 12:03:34;;;;;;;2.97;1.17;;;30.70;84.30;;;;;;4913637;29;20062;-73
2021/08/01 12:06:02;;;;;;;2.88;1.40;;;30.80;83.00;;;;;;4936412;28;20056;-72
2021/08/01 12:08:32;;;;;;;5.75;1.63;;;30.60;83.00;;;;;;4905698;29;20507;-70
2021/08/01 12:11:06;;;;;;;3.97;1.67;;;30.60;84.10;;;;;;4906284;29;20432;-71
2021/08/01 12:13:34;;;;;;;6.15;1.40;;;30.40;83.30;;;;;;4920850;29;20122;-73
2021/08/01 12:16:15;;;;;;;5.55;1.20;;;30.20;83.00;;;;;;4907196;29;20048;-73
2021/08/01 12:18:43;;;;;;;2.83;1.10;;;30.20;83.30;;;;;;4891098;29;20067;-74
2021/08/01 12:21:34;;;;;;;4.20;1.30;;;30.30;83.30;;;;;;4900720;29;20462;-72
2021/08/01 12:24:05;;;;;;;4.10;1.20;;;30.40;85.40;;;;;;4905950;29;20044;-73
2021/08/01 12:26:38;;;;;;;6.38;1.77;;;30.20;85.90;;;;;;4903927;29;20491;-72
2021/08/01 12:29:06;;;;;;;4.35;1.30;;;30.20;86.30;;;;;;4910121;29;20055;-71
2021/08/01 12:31:36;;;;;;;3.30;1.40;;;30.40;86.40;;;;;;4916685;29;20060;-71
2021/08/01 12:34:05;;;;;;;5.80;1.52;;;30.60;87.20;;;;;;4914775;29;20040;-72
2021/08/01 12:36:34;;;;;;;3.53;1.52;;;30.50;87.50;;;;;;4911854;29;20080;-72
2021/08/01 12:39:06;;;;;;;4.28;1.55;;;30.50;87.50;;;;;;4907114;29;20072;-72
2021/08/01 12:41:36;;;;;;;4.38;1.65;;;30.30;86.20;;;;;;4919082;29;20056;-72
2021/08/01 12:44:19;;;;;;;3.83;1.50;;;30.30;86.10;;;;;;4907269;29;20426;-72
2021/08/01 12:47:06;;;;;;;7.95;1.98;;;30.40;84.30;;;;;;4910022;29;20525;-71
2021/08/01 12:49:34;;;;;;;;;;;30.50;83.40;;;;;;4893972;29;20142;-71
2021/08/01 12:52:03;;;;;;;3.58;1.40;;;30.50;83.50;;;;;;4917918;29;19934;-72
2021/08/01 12:54:31;;;;;;;3.95;1.48;;;30.20;83.50;;;;;;4910721;29;20040;-72
2021/08/01 12:57:06;;;;;;;4.95;1.50;;;30.30;83.20;;;;;;4910110;29;20047;-72
2021/08/01 12:59:36;;;;;;;4.30;1.40;;;30.50;83.40;;;;;;4939983;28;20058;-71
2021/08/01 13:02:06;;;;;;;5.18;1.27;;;30.50;83.30;;;;;;4912574;29;20044;-73
2021/08/01 13:04:42;;;;;;;2.85;1.30;;;30.40;82.30;;;;;;4910183;29;20044;-73
2021/08/01 13:07:10;;;;;;;2.47;0.85;;;30.30;80.80;;;;;;4926036;29;20123;-71
2021/08/01 13:09:39;;;;;;;3.05;1.00;;;30.30;79.60;;;;;;4912665;29;20056;-73
2021/08/01 13:12:12;;;;;;;7.65;2.00;;;30.30;80.60;;;;;;4921826;28;20495;-72
2021/08/01 13:14:43;;;;;;;5.57;1.20;;;30.30;82.20;;;;;;4920564;29;20477;-71
2021/08/01 13:17:14;;;;;;;4.82;1.27;;;30.50;81.70;;;;;;4904723;29;20041;-72
2021/08/01 13:19:42;;;;;;;6.85;1.73;;;30.40;81.60;;;;;;4909014;29;20044;-71
2021/08/01 13:22:12;;;;;;;5.97;1.45;;;30.30;82.60;;;;;;4910378;29;20051;-71
2021/08/01 13:24:43;;;;;;;7.88;1.80;;;30.30;83.10;;;;;;4940713;28;20135;-73
2021/08/01 13:27:12;;;;;;;3.30;1.08;;;30.30;81.50;;;;;;4911780;29;20421;-73
2021/08/01 13:29:41;;;;;;;5.85;1.40;;;30.40;80.90;;;;;;4910870;29;20049;-73
2021/08/01 13:32:11;;;;;;;8.10;1.55;;;30.60;80.90;;;;;;4909799;29;20131;-72
2021/08/01 13:34:43;;;;;;;8.57;1.40;;;30.70;80.60;;;;;;4913120;29;20056;-72
2021/08/01 13:37:29;;;;;;;6.68;2.15;;;30.50;80.30;;;;;;4911599;29;20447;-72
2021/08/01 13:39:58;;;;;;;;;;;30.50;81.80;;;;;;4937479;28;20063;-72
2021/08/01 13:42:36;;;;;;;7.00;1.30;;;30.60;80.80;;;;;;4942336;28;20049;-71
2021/08/01 13:45:08;;;;;;;9.57;2.33;;;30.70;78.90;;;;;;4909738;29;20534;-71
2021/08/01 13:47:37;;;;;;;4.95;1.55;;;30.70;82.80;;;;;;4914760;29;20103;-71
2021/08/01 13:50:10;;;;;;;7.75;1.77;;;30.60;81.60;;;;;;4889804;29;20056;-71
2021/08/01 13:52:42;;;;;;;9.20;1.98;;;30.60;79.30;;;;;;4942897;28;20043;-71
2021/08/01 13:55:11;;;;;;;4.82;1.73;;;30.60;79.90;;;;;;4910555;29;20508;-71
2021/08/01 13:57:39;;;;;;;6.93;1.60;;;30.50;80.70;;;;;;4913928;29;20517;-71
2021/08/01 14:00:09;;;;;;;4.30;1.67;;;30.70;80.40;;;;;;4912626;29;20159;-71
2021/08/01 14:02:42;;;;;;;3.42;1.27;;;30.70;79.90;;;;;;4907850;29;20433;-71
2021/08/01 14:05:12;;;;;;;7.20;1.50;;;30.90;79.40;;;;;;4909216;29;20056;-71
2021/08/01 14:07:41;;;;;;;5.85;1.33;;;31.20;78.50;;;;;;4911822;29;20531;-71
2021/08/01 14:10:10;;;;;;;9.90;1.90;;;31.10;78.00;;;;;;4942217;28;20052;-71
2021/08/01 14:12:39;;;;;;;7.22;1.90;;;31.00;78.90;;;;;;4909985;29;20075;-71
2021/08/01 14:15:10;;;;;;;7.13;1.60;;;31.00;79.40;;;;;;4908808;29;20044;-70
2021/08/01 14:17:39;;;;;;;5.18;1.48;;;31.20;78.80;;;;;;4924846;29;20087;-72
2021/08/01 14:20:10;;;;;;;5.03;1.63;;;31.60;78.20;;;;;;4922481;29;20044;-71
2021/08/01 14:22:42;;;;;;;5.88;1.45;;;30.80;78.40;;;;;;4909779;29;20052;-72
2021/08/01 14:25:11;;;;;;;8.90;1.77;;;30.90;79.00;;;;;;4907741;29;20495;-71
2021/08/01 14:27:42;;;;;;;3.67;1.45;;;30.30;77.90;;;;;;4894804;29;20139;-71
2021/08/01 14:30:11;;;;;;;5.28;1.65;;;29.80;79.30;;;;;;4922742;28;20541;-72
2021/08/01 14:32:44;;;;;;;9.30;1.15;;;29.40;76.80;;;;;;4909553;29;20446;-71
2021/08/01 14:35:13;;;;;;;3.42;0.70;;;29.00;76.60;;;;;;4905261;29;20060;-72
2021/08/01 14:37:43;;;;;;;5.03;1.13;;;29.00;76.30;;;;;;4910875;29;20079;-71
2021/08/01 14:40:16;;;;;;;5.30;1.25;;;28.80;76.70;;;;;;4913444;29;20040;-71
2021/08/01 14:42:45;;;;;;;5.50;1.33;;;29.50;73.90;;;;;;4908979;29;20554;-73